sensor_id;sensor_type;location;lat;lon;timestamp;temperature;humidity
23160;DHT22;11748;50.844;4.396;2022-12-24T00:01:08;11.70;99.90
23160;DHT22;11748;50.844;4.396;2022-12-24T00:03:36;11.60;99.90
23160;DHT22;11748;50.844;4.396;2022-12-24T00:06:21;11.60;99.90
23160;DHT22;11748;50.844;4.396;2022-12-24T00:08:46;11.50;99.90
23160;DHT22;11748;50.844;4.396;2022-12-24T00:11:12;11.60;99.90
23160;DHT22;11748;50.844;4.396;2022-12-24T00:13:38;11.50;99.90
23160;DHT22;11748;50.844;4.396;2022-12-24T00:16:04;11.40;99.90
23160;DHT22;11748;50.844;4.396;2022-12-24T00:18:30;11.40;99.90
23160;DHT22;11748;50.844;4.396;2022-12-24T00:20:55;11.30;99.90
23160;DHT22;11748;50.844;4.396;2022-12-24T00:23:21;11.40;99.90
23160;DHT22;11748;50.844;4.396;2022-12-24T00:25:47;11.50;99.90
23160;DHT22;11748;50.844;4.396;2022-12-24T00:28:13;11.50;99.90
23160;DHT22;11748;50.844;4.396;2022-12-24T00:30:41;11.50;99.90
23160;DHT22;11748;50.844;4.396;2022-12-24T00:33:07;11.50;99.90
23160;DHT22;11748;50.844;4.396;2022-12-24T00:35:38;11.40;99.90
23160;DHT22;11748;50.844;4.396;2022-12-24T00:38:04;11.40;99.90
23160;DHT22;11748;50.844;4.396;2022-12-24T00:40:30;11.40;99.90
23160;DHT22;11748;50.844;4.396;2022-12-24T00:42:57;11.40;99.90
23160;DHT22;11748;50.844;4.396;2022-12-24T00:45:22;11.30;99.90
23160;DHT22;11748;50.844;4.396;2022-12-24T00:47:49;11.20;99.90
23160;DHT22;11748;50.844;4.396;2022-12-24T00:50:14;11.30;99.90
23160;DHT22;11748;50.844;4.396;2022-12-24T00:52:40;11.30;99.90
23160;DHT22;11748;50.844;4.396;2022-12-24T00:55:06;11.40;99.90
23160;DHT22;11748;50.844;4.396;2022-12-24T00:57:32;11.60;99.90
23160;DHT22;11748;50.844;4.396;2022-12-24T00:59:58;11.40;99.90
23160;DHT22;11748;50.844;4.396;2022-12-24T01:02:24;11.30;99.90
23160;DHT22;11748;50.844;4.396;2022-12-24T01:04:50;11.40;99.90
23160;DHT22;11748;50.844;4.396;2022-12-24T01:07:35;11.40;99.90
23160;DHT22;11748;50.844;4.396;2022-12-24T01:10:01;11.40;99.90
23160;DHT22;11748;50.844;4.396;2022-12-24T01:12:27;11.40;99.90
23160;DHT22;11748;50.844;4.396;2022-12-24T01:14:53;11.30;99.90
23160;DHT22;11748;50.844;4.396;2022-12-24T01:17:18;11.20;99.90
23160;DHT22;11748;50.844;4.396;2022-12-24T01:19:44;11.10;99.90
23160;DHT22;11748;50.844;4.396;2022-12-24T01:22:10;11.10;99.90
23160;DHT22;11748;50.844;4.396;2022-12-24T01:24:35;11.10;99.90
23160;DHT22;11748;50.844;4.396;2022-12-24T01:27:01;11.10;99.90
23160;DHT22;11748;50.844;4.396;2022-12-24T01:29:27;11.10;99.90
23160;DHT22;11748;50.844;4.396;2022-12-24T01:31:52;11.10;99.90
23160;DHT22;11748;50.844;4.396;2022-12-24T01:34:18;11.10;99.90
23160;DHT22;11748;50.844;4.396;2022-12-24T01:36:44;11.20;99.90
23160;DHT22;11748;50.844;4.396;2022-12-24T01:39:09;11.20;99.90
23160;DHT22;11748;50.844;4.396;2022-12-24T01:41:35;11.20;99.90
23160;DHT22;11748;50.844;4.396;2022-12-24T01:44:26;11.20;99.90
23160;DHT22;11748;50.844;4.396;2022-12-24T01:47:46;11.30;99.90
23160;DHT22;11748;50.844;4.396;2022-12-24T01:49:58;11.30;99.90
23160;DHT22;11748;50.844;4.396;2022-12-24T01:52:29;11.20;99.90
23160;DHT22;11748;50.844;4.396;2022-12-24T01:55:01;11.10;99.90
23160;DHT22;11748;50.844;4.396;2022-12-24T01:57:34;11.00;99.90
23160;DHT22;11748;50.844;4.396;2022-12-24T02:00:08;10.90;99.90
23160;DHT22;11748;50.844;4.396;2022-12-24T02:02:35;10.90;99.90
23160;DHT22;11748;50.844;4.396;2022-12-24T02:07:31;11.00;99.90
23160;DHT22;11748;50.844;4.396;2022-12-24T02:09:58;11.00;99.90
23160;DHT22;11748;50.844;4.396;2022-12-24T02:12:26;11.00;99.90
23160;DHT22;11748;50.844;4.396;2022-12-24T02:14:53;11.00;99.90
23160;DHT22;11748;50.844;4.396;2022-12-24T02:17:37;11.00;99.90
23160;DHT22;11748;50.844;4.396;2022-12-24T02:20:30;11.00;99.90
23160;DHT22;11748;50.844;4.396;2022-12-24T02:23:34;11.10;99.90
23160;DHT22;11748;50.844;4.396;2022-12-24T02:31:08;11.00;99.90
23160;DHT22;11748;50.844;4.396;2022-12-24T02:33:43;11.00;99.90
23160;DHT22;11748;50.844;4.396;2022-12-24T02:36:11;11.00;99.90
23160;DHT22;11748;50.844;4.396;2022-12-24T02:41:23;11.10;99.90
23160;DHT22;11748;50.844;4.396;2022-12-24T02:43:51;11.10;99.90
23160;DHT22;11748;50.844;4.396;2022-12-24T02:46:21;11.20;99.90
23160;DHT22;11748;50.844;4.396;2022-12-24T02:48:49;11.20;99.90
23160;DHT22;11748;50.844;4.396;2022-12-24T02:51:16;11.20;99.90
23160;DHT22;11748;50.844;4.396;2022-12-24T02:53:41;11.10;99.90
23160;DHT22;11748;50.844;4.396;2022-12-24T02:56:12;11.20;99.90
23160;DHT22;11748;50.844;4.396;2022-12-24T03:04:46;10.90;99.90
23160;DHT22;11748;50.844;4.396;2022-12-24T03:07:30;11.00;99.90
23160;DHT22;11748;50.844;4.396;2022-12-24T03:12:53;11.10;99.90
23160;DHT22;11748;50.844;4.396;2022-12-24T03:15:23;11.10;99.90
23160;DHT22;11748;50.844;4.396;2022-12-24T03:17:51;11.10;99.90
23160;DHT22;11748;50.844;4.396;2022-12-24T03:20:23;11.00;99.90
23160;DHT22;11748;50.844;4.396;2022-12-24T03:22:50;11.00;99.90
23160;DHT22;11748;50.844;4.396;2022-12-24T03:25:15;10.90;99.90
23160;DHT22;11748;50.844;4.396;2022-12-24T03:27:42;11.00;99.90
23160;DHT22;11748;50.844;4.396;2022-12-24T03:30:13;10.90;99.90
23160;DHT22;11748;50.844;4.396;2022-12-24T03:32:40;10.90;99.90
23160;DHT22;11748;50.844;4.396;2022-12-24T03:35:07;11.00;99.90
23160;DHT22;11748;50.844;4.396;2022-12-24T03:37:33;10.90;99.90
23160;DHT22;11748;50.844;4.396;2022-12-24T03:39:58;10.90;99.90
23160;DHT22;11748;50.844;4.396;2022-12-24T03:42:24;10.80;99.90
23160;DHT22;11748;50.844;4.396;2022-12-24T03:44:50;10.90;99.90
23160;DHT22;11748;50.844;4.396;2022-12-24T03:47:15;10.90;99.90
23160;DHT22;11748;50.844;4.396;2022-12-24T03:49:42;11.00;99.90
23160;DHT22;11748;50.844;4.396;2022-12-24T03:52:07;11.10;99.90
23160;DHT22;11748;50.844;4.396;2022-12-24T03:54:33;11.00;99.90
23160;DHT22;11748;50.844;4.396;2022-12-24T03:56:59;10.90;99.90
23160;DHT22;11748;50.844;4.396;2022-12-24T03:59:24;11.00;99.90
23160;DHT22;11748;50.844;4.396;2022-12-24T04:01:52;11.00;99.90
23160;DHT22;11748;50.844;4.396;2022-12-24T04:04:17;11.00;99.90
23160;DHT22;11748;50.844;4.396;2022-12-24T04:06:43;11.10;99.90
23160;DHT22;11748;50.844;4.396;2022-12-24T04:09:09;11.00;99.90
23160;DHT22;11748;50.844;4.396;2022-12-24T04:11:34;10.90;99.90
23160;DHT22;11748;50.844;4.396;2022-12-24T04:14:00;10.90;99.90
23160;DHT22;11748;50.844;4.396;2022-12-24T04:16:26;10.90;99.90
23160;DHT22;11748;50.844;4.396;2022-12-24T04:18:52;10.90;99.90
23160;DHT22;11748;50.844;4.396;2022-12-24T04:21:17;11.00;99.90
23160;DHT22;11748;50.844;4.396;2022-12-24T04:23:43;11.00;99.90
23160;DHT22;11748;50.844;4.396;2022-12-24T04:26:11;11.00;99.90
23160;DHT22;11748;50.844;4.396;2022-12-24T04:28:40;11.10;99.90
23160;DHT22;11748;50.844;4.396;2022-12-24T04:31:08;11.00;99.90
23160;DHT22;11748;50.844;4.396;2022-12-24T04:33:35;11.00;99.90
23160;DHT22;11748;50.844;4.396;2022-12-24T04:36:06;11.00;99.90
23160;DHT22;11748;50.844;4.396;2022-12-24T04:38:33;11.00;99.90
23160;DHT22;11748;50.844;4.396;2022-12-24T04:41:04;10.90;99.90
23160;DHT22;11748;50.844;4.396;2022-12-24T04:43:30;10.90;99.90
23160;DHT22;11748;50.844;4.396;2022-12-24T04:46:02;10.90;99.90
23160;DHT22;11748;50.844;4.396;2022-12-24T04:48:28;11.00;99.90
23160;DHT22;11748;50.844;4.396;2022-12-24T04:50:53;10.90;99.90
23160;DHT22;11748;50.844;4.396;2022-12-24T04:53:19;10.90;99.90
23160;DHT22;11748;50.844;4.396;2022-12-24T04:55:45;10.90;99.90
23160;DHT22;11748;50.844;4.396;2022-12-24T04:58:11;11.00;99.90
23160;DHT22;11748;50.844;4.396;2022-12-24T05:00:38;11.00;99.90
23160;DHT22;11748;50.844;4.396;2022-12-24T05:03:04;10.90;99.90
23160;DHT22;11748;50.844;4.396;2022-12-24T05:05:30;10.90;99.90
23160;DHT22;11748;50.844;4.396;2022-12-24T05:07:55;10.80;99.90
23160;DHT22;11748;50.844;4.396;2022-12-24T05:10:21;10.90;99.90
23160;DHT22;11748;50.844;4.396;2022-12-24T05:12:47;10.90;99.90
23160;DHT22;11748;50.844;4.396;2022-12-24T05:15:12;10.90;99.90
23160;DHT22;11748;50.844;4.396;2022-12-24T05:17:38;10.80;99.90
23160;DHT22;11748;50.844;4.396;2022-12-24T05:20:04;10.80;99.90
23160;DHT22;11748;50.844;4.396;2022-12-24T05:22:30;10.70;99.90
23160;DHT22;11748;50.844;4.396;2022-12-24T05:25:14;10.60;99.90
23160;DHT22;11748;50.844;4.396;2022-12-24T05:27:58;10.70;99.90
23160;DHT22;11748;50.844;4.396;2022-12-24T05:30:24;10.70;99.90
23160;DHT22;11748;50.844;4.396;2022-12-24T05:32:49;10.70;99.90
23160;DHT22;11748;50.844;4.396;2022-12-24T05:35:15;10.80;99.90
23160;DHT22;11748;50.844;4.396;2022-12-24T05:37:41;10.80;99.90
23160;DHT22;11748;50.844;4.396;2022-12-24T05:40:07;10.90;99.90
23160;DHT22;11748;50.844;4.396;2022-12-24T05:42:33;10.90;99.90
23160;DHT22;11748;50.844;4.396;2022-12-24T05:44:59;10.90;99.90
23160;DHT22;11748;50.844;4.396;2022-12-24T05:47:25;10.80;99.90
23160;DHT22;11748;50.844;4.396;2022-12-24T05:49:50;10.90;99.90
23160;DHT22;11748;50.844;4.396;2022-12-24T05:52:16;10.80;99.90
23160;DHT22;11748;50.844;4.396;2022-12-24T05:54:42;10.80;99.90
23160;DHT22;11748;50.844;4.396;2022-12-24T05:57:07;10.90;99.90
23160;DHT22;11748;50.844;4.396;2022-12-24T05:59:33;10.90;99.90
23160;DHT22;11748;50.844;4.396;2022-12-24T06:01:59;11.00;99.90
23160;DHT22;11748;50.844;4.396;2022-12-24T06:04:25;11.00;99.90
23160;DHT22;11748;50.844;4.396;2022-12-24T06:06:50;11.10;99.90
23160;DHT22;11748;50.844;4.396;2022-12-24T06:09:16;11.00;99.90
23160;DHT22;11748;50.844;4.396;2022-12-24T06:11:42;11.00;99.90
23160;DHT22;11748;50.844;4.396;2022-12-24T06:14:07;11.00;99.90
23160;DHT22;11748;50.844;4.396;2022-12-24T06:16:33;10.90;99.90
23160;DHT22;11748;50.844;4.396;2022-12-24T06:18:59;10.90;99.90
23160;DHT22;11748;50.844;4.396;2022-12-24T06:21:24;11.00;99.90
23160;DHT22;11748;50.844;4.396;2022-12-24T06:23:50;11.00;99.90
23160;DHT22;11748;50.844;4.396;2022-12-24T06:26:19;11.00;99.90
23160;DHT22;11748;50.844;4.396;2022-12-24T06:28:48;11.00;99.90
23160;DHT22;11748;50.844;4.396;2022-12-24T06:31:18;11.10;99.90
23160;DHT22;11748;50.844;4.396;2022-12-24T06:33:44;11.20;99.90
23160;DHT22;11748;50.844;4.396;2022-12-24T06:36:17;11.10;99.90
23160;DHT22;11748;50.844;4.396;2022-12-24T06:38:44;11.00;99.90
23160;DHT22;11748;50.844;4.396;2022-12-24T06:41:10;10.90;99.90
23160;DHT22;11748;50.844;4.396;2022-12-24T06:43:35;10.90;99.90
23160;DHT22;11748;50.844;4.396;2022-12-24T06:46:02;10.90;99.90
23160;DHT22;11748;50.844;4.396;2022-12-24T06:48:27;10.80;99.90
23160;DHT22;11748;50.844;4.396;2022-12-24T06:50:53;10.90;99.90
23160;DHT22;11748;50.844;4.396;2022-12-24T06:53:19;10.90;99.90
23160;DHT22;11748;50.844;4.396;2022-12-24T06:55:45;10.90;99.90
23160;DHT22;11748;50.844;4.396;2022-12-24T06:58:10;10.90;99.90
23160;DHT22;11748;50.844;4.396;2022-12-24T07:00:36;10.90;99.90
23160;DHT22;11748;50.844;4.396;2022-12-24T07:03:03;10.90;99.90
23160;DHT22;11748;50.844;4.396;2022-12-24T07:05:29;10.90;99.90
23160;DHT22;11748;50.844;4.396;2022-12-24T07:07:56;10.90;99.90
23160;DHT22;11748;50.844;4.396;2022-12-24T07:10:22;10.90;99.90
23160;DHT22;11748;50.844;4.396;2022-12-24T07:12:48;10.90;99.90
23160;DHT22;11748;50.844;4.396;2022-12-24T07:15:14;10.90;99.90
23160;DHT22;11748;50.844;4.396;2022-12-24T07:17:40;11.00;99.90
23160;DHT22;11748;50.844;4.396;2022-12-24T07:20:08;11.00;99.90
23160;DHT22;11748;50.844;4.396;2022-12-24T07:22:34;11.10;99.90
23160;DHT22;11748;50.844;4.396;2022-12-24T07:25:00;11.20;99.90
23160;DHT22;11748;50.844;4.396;2022-12-24T07:27:26;11.20;99.90
23160;DHT22;11748;50.844;4.396;2022-12-24T07:29:51;11.10;99.90
23160;DHT22;11748;50.844;4.396;2022-12-24T07:32:18;11.30;99.90
23160;DHT22;11748;50.844;4.396;2022-12-24T07:34:46;11.30;99.90
23160;DHT22;11748;50.844;4.396;2022-12-24T07:37:12;11.40;99.90
23160;DHT22;11748;50.844;4.396;2022-12-24T07:39:38;11.30;99.90
23160;DHT22;11748;50.844;4.396;2022-12-24T07:42:04;11.20;99.90
23160;DHT22;11748;50.844;4.396;2022-12-24T07:44:32;11.20;99.90
23160;DHT22;11748;50.844;4.396;2022-12-24T07:46:58;11.30;99.90
23160;DHT22;11748;50.844;4.396;2022-12-24T07:49:24;11.30;99.90
23160;DHT22;11748;50.844;4.396;2022-12-24T07:51:49;11.30;99.90
23160;DHT22;11748;50.844;4.396;2022-12-24T07:54:15;11.40;99.90
23160;DHT22;11748;50.844;4.396;2022-12-24T07:56:41;11.10;99.90
23160;DHT22;11748;50.844;4.396;2022-12-24T07:59:08;11.00;99.90
23160;DHT22;11748;50.844;4.396;2022-12-24T08:01:35;10.90;99.90
23160;DHT22;11748;50.844;4.396;2022-12-24T08:04:00;10.90;99.90
23160;DHT22;11748;50.844;4.396;2022-12-24T08:06:26;10.90;99.90
23160;DHT22;11748;50.844;4.396;2022-12-24T08:08:52;10.80;99.90
23160;DHT22;11748;50.844;4.396;2022-12-24T08:11:17;10.80;99.90
23160;DHT22;11748;50.844;4.396;2022-12-24T08:13:43;10.80;99.90
23160;DHT22;11748;50.844;4.396;2022-12-24T08:16:09;10.80;99.90
23160;DHT22;11748;50.844;4.396;2022-12-24T08:18:34;10.90;99.90
23160;DHT22;11748;50.844;4.396;2022-12-24T08:21:00;10.90;99.90
23160;DHT22;11748;50.844;4.396;2022-12-24T08:23:26;11.00;99.90
23160;DHT22;11748;50.844;4.396;2022-12-24T08:25:51;11.10;99.90
23160;DHT22;11748;50.844;4.396;2022-12-24T08:28:19;11.10;99.90
23160;DHT22;11748;50.844;4.396;2022-12-24T08:30:46;11.10;99.90
23160;DHT22;11748;50.844;4.396;2022-12-24T08:33:12;11.20;99.90
23160;DHT22;11748;50.844;4.396;2022-12-24T08:35:38;11.10;99.90
23160;DHT22;11748;50.844;4.396;2022-12-24T08:38:03;11.20;99.90
23160;DHT22;11748;50.844;4.396;2022-12-24T08:40:29;11.40;99.90
23160;DHT22;11748;50.844;4.396;2022-12-24T08:42:54;11.30;99.90
23160;DHT22;11748;50.844;4.396;2022-12-24T08:45:20;11.40;99.90
23160;DHT22;11748;50.844;4.396;2022-12-24T08:47:46;11.40;99.90
23160;DHT22;11748;50.844;4.396;2022-12-24T08:50:12;11.60;99.90
23160;DHT22;11748;50.844;4.396;2022-12-24T08:52:38;11.70;99.90
23160;DHT22;11748;50.844;4.396;2022-12-24T08:55:04;11.80;99.90
23160;DHT22;11748;50.844;4.396;2022-12-24T08:57:30;11.80;99.90
23160;DHT22;11748;50.844;4.396;2022-12-24T08:59:56;11.60;99.90
23160;DHT22;11748;50.844;4.396;2022-12-24T09:02:21;11.40;99.90
23160;DHT22;11748;50.844;4.396;2022-12-24T09:04:47;11.40;99.90
23160;DHT22;11748;50.844;4.396;2022-12-24T09:07:13;11.40;99.90
23160;DHT22;11748;50.844;4.396;2022-12-24T09:09:39;11.50;99.90
23160;DHT22;11748;50.844;4.396;2022-12-24T09:12:06;11.50;99.90
23160;DHT22;11748;50.844;4.396;2022-12-24T09:14:32;11.70;99.90
23160;DHT22;11748;50.844;4.396;2022-12-24T09:16:57;11.60;99.90
23160;DHT22;11748;50.844;4.396;2022-12-24T09:19:24;11.60;99.90
23160;DHT22;11748;50.844;4.396;2022-12-24T09:21:50;11.70;99.90
23160;DHT22;11748;50.844;4.396;2022-12-24T09:24:16;11.70;99.90
23160;DHT22;11748;50.844;4.396;2022-12-24T09:26:41;11.60;99.90
23160;DHT22;11748;50.844;4.396;2022-12-24T09:29:09;11.70;99.90
23160;DHT22;11748;50.844;4.396;2022-12-24T09:31:35;11.70;99.90
23160;DHT22;11748;50.844;4.396;2022-12-24T09:34:01;11.70;99.90
23160;DHT22;11748;50.844;4.396;2022-12-24T09:36:27;11.70;99.90
23160;DHT22;11748;50.844;4.396;2022-12-24T09:38:52;11.80;99.90
23160;DHT22;11748;50.844;4.396;2022-12-24T09:44:35;11.90;99.90
23160;DHT22;11748;50.844;4.396;2022-12-24T09:47:26;11.90;99.90
23160;DHT22;11748;50.844;4.396;2022-12-24T09:49:59;11.80;99.90
23160;DHT22;11748;50.844;4.396;2022-12-24T09:52:33;11.80;99.90
23160;DHT22;11748;50.844;4.396;2022-12-24T09:55:26;11.80;99.90
23160;DHT22;11748;50.844;4.396;2022-12-24T09:57:53;11.70;99.90
23160;DHT22;11748;50.844;4.396;2022-12-24T10:00:25;11.80;99.90
23160;DHT22;11748;50.844;4.396;2022-12-24T10:02:52;11.80;99.90
23160;DHT22;11748;50.844;4.396;2022-12-24T10:05:29;11.80;99.90
23160;DHT22;11748;50.844;4.396;2022-12-24T10:08:06;11.80;99.90
23160;DHT22;11748;50.844;4.396;2022-12-24T10:10:54;11.90;99.90
23160;DHT22;11748;50.844;4.396;2022-12-24T10:13:31;11.90;99.90
23160;DHT22;11748;50.844;4.396;2022-12-24T10:18:51;12.10;99.90
23160;DHT22;11748;50.844;4.396;2022-12-24T10:21:25;12.00;99.90
23160;DHT22;11748;50.844;4.396;2022-12-24T10:24:25;11.90;99.90
23160;DHT22;11748;50.844;4.396;2022-12-24T10:27:05;11.80;99.90
23160;DHT22;11748;50.844;4.396;2022-12-24T10:29:35;11.60;99.90
23160;DHT22;11748;50.844;4.396;2022-12-24T10:34:37;11.60;99.90
23160;DHT22;11748;50.844;4.396;2022-12-24T10:37:05;11.70;99.90
23160;DHT22;11748;50.844;4.396;2022-12-24T10:39:31;11.80;99.90
23160;DHT22;11748;50.844;4.396;2022-12-24T10:41:58;12.00;99.90
23160;DHT22;11748;50.844;4.396;2022-12-24T10:44:30;12.10;99.90
23160;DHT22;11748;50.844;4.396;2022-12-24T10:46:56;12.00;99.90
23160;DHT22;11748;50.844;4.396;2022-12-24T10:49:36;12.00;99.90
23160;DHT22;11748;50.844;4.396;2022-12-24T10:52:16;12.00;99.90
23160;DHT22;11748;50.844;4.396;2022-12-24T10:55:04;12.10;99.90
23160;DHT22;11748;50.844;4.396;2022-12-24T10:57:30;12.20;99.90
23160;DHT22;11748;50.844;4.396;2022-12-24T10:59:56;12.10;99.90
23160;DHT22;11748;50.844;4.396;2022-12-24T11:04:54;12.00;99.90
23160;DHT22;11748;50.844;4.396;2022-12-24T11:07:21;12.00;99.90
23160;DHT22;11748;50.844;4.396;2022-12-24T11:10:02;12.00;99.90
23160;DHT22;11748;50.844;4.396;2022-12-24T11:12:36;12.00;99.90
23160;DHT22;11748;50.844;4.396;2022-12-24T11:17:32;12.30;99.90
23160;DHT22;11748;50.844;4.396;2022-12-24T11:19:59;12.20;99.90
23160;DHT22;11748;50.844;4.396;2022-12-24T11:22:30;12.20;99.90
23160;DHT22;11748;50.844;4.396;2022-12-24T11:30:20;12.30;99.90
23160;DHT22;11748;50.844;4.396;2022-12-24T11:33:13;12.30;99.90
23160;DHT22;11748;50.844;4.396;2022-12-24T11:35:39;12.50;99.90
23160;DHT22;11748;50.844;4.396;2022-12-24T11:40:36;12.40;99.90
23160;DHT22;11748;50.844;4.396;2022-12-24T11:43:05;12.50;99.90
23160;DHT22;11748;50.844;4.396;2022-12-24T11:45:32;12.50;99.90
23160;DHT22;11748;50.844;4.396;2022-12-24T11:47:59;12.60;99.90
23160;DHT22;11748;50.844;4.396;2022-12-24T11:50:34;12.80;99.90
23160;DHT22;11748;50.844;4.396;2022-12-24T12:01:22;13.10;99.90
23160;DHT22;11748;50.844;4.396;2022-12-24T12:03:50;13.00;99.90
23160;DHT22;11748;50.844;4.396;2022-12-24T12:06:37;12.70;99.90
23160;DHT22;11748;50.844;4.396;2022-12-24T12:09:31;12.60;99.90
23160;DHT22;11748;50.844;4.396;2022-12-24T12:12:20;12.60;99.90
23160;DHT22;11748;50.844;4.396;2022-12-24T12:14:58;12.60;99.90
23160;DHT22;11748;50.844;4.396;2022-12-24T12:20:34;12.80;99.90
23160;DHT22;11748;50.844;4.396;2022-12-24T12:23:17;12.80;99.90
23160;DHT22;11748;50.844;4.396;2022-12-24T12:31:16;12.80;99.90
23160;DHT22;11748;50.844;4.396;2022-12-24T12:36:59;12.70;99.90
23160;DHT22;11748;50.844;4.396;2022-12-24T12:39:30;12.60;99.90
23160;DHT22;11748;50.844;4.396;2022-12-24T12:50:10;12.60;99.90
23160;DHT22;11748;50.844;4.396;2022-12-24T12:58:03;12.50;99.90
23160;DHT22;11748;50.844;4.396;2022-12-24T13:00:33;12.60;99.90
23160;DHT22;11748;50.844;4.396;2022-12-24T13:19:36;13.50;99.90
23160;DHT22;11748;50.844;4.396;2022-12-24T13:22:14;13.30;99.90
23160;DHT22;11748;50.844;4.396;2022-12-24T13:24:47;13.20;99.90
23160;DHT22;11748;50.844;4.396;2022-12-24T13:27:30;13.30;99.90
23160;DHT22;11748;50.844;4.396;2022-12-24T13:37:44;13.70;99.90
23160;DHT22;11748;50.844;4.396;2022-12-24T13:53:05;13.50;99.90
23160;DHT22;11748;50.844;4.396;2022-12-24T13:55:32;13.20;99.90
23160;DHT22;11748;50.844;4.396;2022-12-24T13:58:03;13.40;99.90
23160;DHT22;11748;50.844;4.396;2022-12-24T14:00:40;13.40;99.90
23160;DHT22;11748;50.844;4.396;2022-12-24T14:10:44;13.20;99.90
23160;DHT22;11748;50.844;4.396;2022-12-24T14:16:23;13.00;99.90
23160;DHT22;11748;50.844;4.396;2022-12-24T14:18:57;13.00;99.90
23160;DHT22;11748;50.844;4.396;2022-12-24T14:21:27;13.10;99.90
23160;DHT22;11748;50.844;4.396;2022-12-24T14:24:02;13.10;99.90
23160;DHT22;11748;50.844;4.396;2022-12-24T14:26:35;13.30;99.90
23160;DHT22;11748;50.844;4.396;2022-12-24T14:31:57;13.20;99.90
23160;DHT22;11748;50.844;4.396;2022-12-24T14:34:23;13.00;99.90
23160;DHT22;11748;50.844;4.396;2022-12-24T14:36:51;13.10;99.90
23160;DHT22;11748;50.844;4.396;2022-12-24T14:39:48;13.00;99.90
23160;DHT22;11748;50.844;4.396;2022-12-24T14:45:01;12.90;99.90
23160;DHT22;11748;50.844;4.396;2022-12-24T14:47:51;13.10;99.90
23160;DHT22;11748;50.844;4.396;2022-12-24T14:53:24;12.90;99.90
23160;DHT22;11748;50.844;4.396;2022-12-24T14:55:50;13.10;99.90
23160;DHT22;11748;50.844;4.396;2022-12-24T14:58:34;13.00;99.90
23160;DHT22;11748;50.844;4.396;2022-12-24T15:01:15;13.00;99.90
23160;DHT22;11748;50.844;4.396;2022-12-24T15:03:42;12.90;99.90
23160;DHT22;11748;50.844;4.396;2022-12-24T15:06:10;13.10;99.90
23160;DHT22;11748;50.844;4.396;2022-12-24T15:08:42;13.00;99.90
23160;DHT22;11748;50.844;4.396;2022-12-24T15:11:15;13.10;99.90
23160;DHT22;11748;50.844;4.396;2022-12-24T15:13:44;13.00;99.90
23160;DHT22;11748;50.844;4.396;2022-12-24T15:16:13;13.10;99.90
23160;DHT22;11748;50.844;4.396;2022-12-24T15:18:50;13.10;99.90
23160;DHT22;11748;50.844;4.396;2022-12-24T15:21:37;12.90;99.90
23160;DHT22;11748;50.844;4.396;2022-12-24T15:26:48;12.80;99.90
23160;DHT22;11748;50.844;4.396;2022-12-24T15:29:24;12.80;99.90
23160;DHT22;11748;50.844;4.396;2022-12-24T15:31:58;12.90;99.90
23160;DHT22;11748;50.844;4.396;2022-12-24T15:34:42;13.20;99.90
23160;DHT22;11748;50.844;4.396;2022-12-24T15:37:17;13.30;99.90
23160;DHT22;11748;50.844;4.396;2022-12-24T15:39:50;13.50;99.90
23160;DHT22;11748;50.844;4.396;2022-12-24T15:42:18;13.50;99.90
23160;DHT22;11748;50.844;4.396;2022-12-24T15:44:58;13.60;99.90
23160;DHT22;11748;50.844;4.396;2022-12-24T15:47:29;13.70;99.90
23160;DHT22;11748;50.844;4.396;2022-12-24T15:50:13;13.60;99.90
23160;DHT22;11748;50.844;4.396;2022-12-24T15:52:40;13.50;99.90
23160;DHT22;11748;50.844;4.396;2022-12-24T15:55:27;13.50;99.90
23160;DHT22;11748;50.844;4.396;2022-12-24T15:57:55;13.60;99.90
23160;DHT22;11748;50.844;4.396;2022-12-24T16:00:24;13.60;99.90
23160;DHT22;11748;50.844;4.396;2022-12-24T16:02:52;13.60;99.90
23160;DHT22;11748;50.844;4.396;2022-12-24T16:05:28;13.60;99.90
23160;DHT22;11748;50.844;4.396;2022-12-24T16:10:40;13.50;99.90
23160;DHT22;11748;50.844;4.396;2022-12-24T16:15:50;13.50;99.90
23160;DHT22;11748;50.844;4.396;2022-12-24T16:18:25;13.40;99.90
23160;DHT22;11748;50.844;4.396;2022-12-24T16:20:53;13.30;99.90
23160;DHT22;11748;50.844;4.396;2022-12-24T16:23:22;13.30;99.90
23160;DHT22;11748;50.844;4.396;2022-12-24T16:25:49;13.20;99.90
23160;DHT22;11748;50.844;4.396;2022-12-24T16:28:15;13.20;99.90
23160;DHT22;11748;50.844;4.396;2022-12-24T16:30:43;13.20;99.90
23160;DHT22;11748;50.844;4.396;2022-12-24T16:33:19;13.20;99.90
23160;DHT22;11748;50.844;4.396;2022-12-24T16:35:46;13.20;99.90
23160;DHT22;11748;50.844;4.396;2022-12-24T16:38:12;13.20;99.90
23160;DHT22;11748;50.844;4.396;2022-12-24T16:40:42;13.20;99.90
23160;DHT22;11748;50.844;4.396;2022-12-24T16:43:11;13.10;99.90
23160;DHT22;11748;50.844;4.396;2022-12-24T16:46:00;13.10;99.90
23160;DHT22;11748;50.844;4.396;2022-12-24T16:48:28;13.20;99.90
23160;DHT22;11748;50.844;4.396;2022-12-24T16:50:56;13.20;99.90
23160;DHT22;11748;50.844;4.396;2022-12-24T16:53:23;13.10;99.90
23160;DHT22;11748;50.844;4.396;2022-12-24T16:55:48;13.10;99.90
23160;DHT22;11748;50.844;4.396;2022-12-24T16:58:17;13.00;99.90
23160;DHT22;11748;50.844;4.396;2022-12-24T17:00:46;13.00;99.90
23160;DHT22;11748;50.844;4.396;2022-12-24T17:03:12;13.10;99.90
23160;DHT22;11748;50.844;4.396;2022-12-24T17:05:40;13.00;99.90
23160;DHT22;11748;50.844;4.396;2022-12-24T17:08:06;12.90;99.90
23160;DHT22;11748;50.844;4.396;2022-12-24T17:10:32;12.80;99.90
23160;DHT22;11748;50.844;4.396;2022-12-24T17:12:58;12.80;99.90
23160;DHT22;11748;50.844;4.396;2022-12-24T17:15:24;12.70;99.90
23160;DHT22;11748;50.844;4.396;2022-12-24T17:17:49;12.70;99.90
23160;DHT22;11748;50.844;4.396;2022-12-24T17:20:15;12.70;99.90
23160;DHT22;11748;50.844;4.396;2022-12-24T17:22:41;12.70;99.90
23160;DHT22;11748;50.844;4.396;2022-12-24T17:25:07;12.60;99.90
23160;DHT22;11748;50.844;4.396;2022-12-24T17:27:34;12.60;99.90
23160;DHT22;11748;50.844;4.396;2022-12-24T17:30:00;12.60;99.90
23160;DHT22;11748;50.844;4.396;2022-12-24T17:32:25;12.60;99.90
23160;DHT22;11748;50.844;4.396;2022-12-24T17:34:54;12.60;99.90
23160;DHT22;11748;50.844;4.396;2022-12-24T17:37:20;12.60;99.90
23160;DHT22;11748;50.844;4.396;2022-12-24T17:39:45;12.50;99.90
23160;DHT22;11748;50.844;4.396;2022-12-24T17:42:11;12.40;99.90
23160;DHT22;11748;50.844;4.396;2022-12-24T17:44:37;12.40;99.90
23160;DHT22;11748;50.844;4.396;2022-12-24T17:47:03;12.40;99.90
23160;DHT22;11748;50.844;4.396;2022-12-24T17:49:30;12.40;99.90
23160;DHT22;11748;50.844;4.396;2022-12-24T17:51:56;12.40;99.90
23160;DHT22;11748;50.844;4.396;2022-12-24T17:54:23;12.30;99.90
23160;DHT22;11748;50.844;4.396;2022-12-24T17:56:48;12.30;99.90
23160;DHT22;11748;50.844;4.396;2022-12-24T17:59:14;12.30;99.90
23160;DHT22;11748;50.844;4.396;2022-12-24T18:01:40;12.30;99.90